sensor_id;sensor_type;location;lat;lon;timestamp;temperature;humidity
5280;DHT22;2663;53.588;10.010;2024-02-28T00:02:01;5.60;99.90
5280;DHT22;2663;53.588;10.010;2024-02-28T00:04:28;5.60;99.90
5280;DHT22;2663;53.588;10.010;2024-02-28T00:06:55;5.60;99.90
5280;DHT22;2663;53.588;10.010;2024-02-28T00:09:22;5.60;99.90
5280;DHT22;2663;53.588;10.010;2024-02-28T00:11:49;5.80;99.90
5280;DHT22;2663;53.588;10.010;2024-02-28T00:14:16;5.90;99.90
5280;DHT22;2663;53.588;10.010;2024-02-28T00:16:44;5.80;99.90
5280;DHT22;2663;53.588;10.010;2024-02-28T00:19:11;5.80;99.90
5280;DHT22;2663;53.588;10.010;2024-02-28T00:21:39;5.60;99.90
5280;DHT22;2663;53.588;10.010;2024-02-28T00:24:07;5.60;99.90
5280;DHT22;2663;53.588;10.010;2024-02-28T00:26:34;5.60;99.90
5280;DHT22;2663;53.588;10.010;2024-02-28T00:29:01;5.50;99.90
5280;DHT22;2663;53.588;10.010;2024-02-28T00:31:28;5.50;99.90
5280;DHT22;2663;53.588;10.010;2024-02-28T00:33:55;5.50;99.90
5280;DHT22;2663;53.588;10.010;2024-02-28T00:36:22;5.70;99.90
5280;DHT22;2663;53.588;10.010;2024-02-28T00:38:49;5.60;99.90
5280;DHT22;2663;53.588;10.010;2024-02-28T00:41:15;5.70;99.90
5280;DHT22;2663;53.588;10.010;2024-02-28T00:43:42;5.70;99.90
5280;DHT22;2663;53.588;10.010;2024-02-28T00:46:09;5.70;99.90
5280;DHT22;2663;53.588;10.010;2024-02-28T00:48:39;5.70;99.90
5280;DHT22;2663;53.588;10.010;2024-02-28T00:51:06;5.70;99.90
5280;DHT22;2663;53.588;10.010;2024-02-28T00:53:35;5.60;99.90
5280;DHT22;2663;53.588;10.010;2024-02-28T00:56:02;5.50;99.90
5280;DHT22;2663;53.588;10.010;2024-02-28T00:58:29;5.50;99.90
5280;DHT22;2663;53.588;10.010;2024-02-28T01:00:57;5.70;99.90
5280;DHT22;2663;53.588;10.010;2024-02-28T01:03:24;5.70;99.90
5280;DHT22;2663;53.588;10.010;2024-02-28T01:05:51;5.70;99.90
5280;DHT22;2663;53.588;10.010;2024-02-28T01:08:18;5.70;99.90
5280;DHT22;2663;53.588;10.010;2024-02-28T01:10:45;5.60;99.90
5280;DHT22;2663;53.588;10.010;2024-02-28T01:13:12;5.70;99.90
5280;DHT22;2663;53.588;10.010;2024-02-28T01:15:42;5.60;99.90
5280;DHT22;2663;53.588;10.010;2024-02-28T01:18:09;5.50;99.90
5280;DHT22;2663;53.588;10.010;2024-02-28T01:20:37;5.50;99.90
5280;DHT22;2663;53.588;10.010;2024-02-28T01:23:04;5.50;99.90
5280;DHT22;2663;53.588;10.010;2024-02-28T01:25:30;5.40;99.90
5280;DHT22;2663;53.588;10.010;2024-02-28T01:27:57;5.40;99.90
5280;DHT22;2663;53.588;10.010;2024-02-28T01:30:27;4.50;99.90
5280;DHT22;2663;53.588;10.010;2024-02-28T01:32:53;5.50;99.90
5280;DHT22;2663;53.588;10.010;2024-02-28T01:35:20;5.60;99.90
5280;DHT22;2663;53.588;10.010;2024-02-28T01:37:47;5.60;99.90
5280;DHT22;2663;53.588;10.010;2024-02-28T01:40:14;5.70;99.90
5280;DHT22;2663;53.588;10.010;2024-02-28T01:42:41;5.70;99.90
5280;DHT22;2663;53.588;10.010;2024-02-28T01:45:13;5.70;99.90
5280;DHT22;2663;53.588;10.010;2024-02-28T01:47:42;5.70;99.90
5280;DHT22;2663;53.588;10.010;2024-02-28T01:50:12;5.60;99.90
5280;DHT22;2663;53.588;10.010;2024-02-28T01:52:39;5.60;99.90
5280;DHT22;2663;53.588;10.010;2024-02-28T01:55:06;5.60;99.90
5280;DHT22;2663;53.588;10.010;2024-02-28T01:57:34;5.50;99.90
5280;DHT22;2663;53.588;10.010;2024-02-28T02:00:06;5.40;99.90
5280;DHT22;2663;53.588;10.010;2024-02-28T02:02:34;5.50;99.90
5280;DHT22;2663;53.588;10.010;2024-02-28T02:05:01;5.50;99.90
5280;DHT22;2663;53.588;10.010;2024-02-28T02:07:28;5.50;99.90
5280;DHT22;2663;53.588;10.010;2024-02-28T02:09:55;6.30;99.90
5280;DHT22;2663;53.588;10.010;2024-02-28T02:12:22;5.60;99.90
5280;DHT22;2663;53.588;10.010;2024-02-28T02:14:49;5.60;99.90
5280;DHT22;2663;53.588;10.010;2024-02-28T02:17:16;5.50;99.90
5280;DHT22;2663;53.588;10.010;2024-02-28T02:19:43;5.40;99.90
5280;DHT22;2663;53.588;10.010;2024-02-28T02:22:13;5.30;99.90
5280;DHT22;2663;53.588;10.010;2024-02-28T02:24:40;5.20;99.90
5280;DHT22;2663;53.588;10.010;2024-02-28T02:27:07;4.60;99.90
5280;DHT22;2663;53.588;10.010;2024-02-28T02:29:34;5.10;99.90
5280;DHT22;2663;53.588;10.010;2024-02-28T02:32:01;5.00;99.90
5280;DHT22;2663;53.588;10.010;2024-02-28T02:34:27;5.10;99.90
5280;DHT22;2663;53.588;10.010;2024-02-28T02:36:54;5.00;99.90
5280;DHT22;2663;53.588;10.010;2024-02-28T02:39:22;5.00;99.90
5280;DHT22;2663;53.588;10.010;2024-02-28T02:41:49;4.90;99.90
5280;DHT22;2663;53.588;10.010;2024-02-28T02:44:16;4.90;99.90
5280;DHT22;2663;53.588;10.010;2024-02-28T02:46:42;4.90;99.90
5280;DHT22;2663;53.588;10.010;2024-02-28T02:49:09;4.80;99.90
5280;DHT22;2663;53.588;10.010;2024-02-28T02:51:36;4.80;99.90
5280;DHT22;2663;53.588;10.010;2024-02-28T02:54:03;4.70;99.90
5280;DHT22;2663;53.588;10.010;2024-02-28T02:56:30;4.60;99.90
5280;DHT22;2663;53.588;10.010;2024-02-28T02:58:57;4.60;99.90
5280;DHT22;2663;53.588;10.010;2024-02-28T03:01:23;4.60;99.90
5280;DHT22;2663;53.588;10.010;2024-02-28T03:03:50;4.60;99.90
5280;DHT22;2663;53.588;10.010;2024-02-28T03:06:18;4.30;99.90
5280;DHT22;2663;53.588;10.010;2024-02-28T03:08:45;4.70;99.90
5280;DHT22;2663;53.588;10.010;2024-02-28T03:11:11;4.70;99.90
5280;DHT22;2663;53.588;10.010;2024-02-28T03:13:38;4.70;99.90
5280;DHT22;2663;53.588;10.010;2024-02-28T03:16:05;4.70;99.90
5280;DHT22;2663;53.588;10.010;2024-02-28T03:18:32;4.60;99.90
5280;DHT22;2663;53.588;10.010;2024-02-28T03:20:59;4.50;99.90
5280;DHT22;2663;53.588;10.010;2024-02-28T03:23:26;4.50;99.90
5280;DHT22;2663;53.588;10.010;2024-02-28T03:25:52;4.50;99.90
5280;DHT22;2663;53.588;10.010;2024-02-28T03:28:19;4.60;99.90
5280;DHT22;2663;53.588;10.010;2024-02-28T03:30:46;4.60;99.90
5280;DHT22;2663;53.588;10.010;2024-02-28T03:33:12;4.70;99.90
5280;DHT22;2663;53.588;10.010;2024-02-28T03:35:39;4.70;99.90
5280;DHT22;2663;53.588;10.010;2024-02-28T03:38:06;4.80;99.90
5280;DHT22;2663;53.588;10.010;2024-02-28T03:40:33;4.90;99.90
5280;DHT22;2663;53.588;10.010;2024-02-28T03:42:59;5.00;99.90
5280;DHT22;2663;53.588;10.010;2024-02-28T03:45:29;5.00;99.90
5280;DHT22;2663;53.588;10.010;2024-02-28T03:47:56;4.90;99.90
5280;DHT22;2663;53.588;10.010;2024-02-28T03:50:23;5.10;99.90
5280;DHT22;2663;53.588;10.010;2024-02-28T03:52:50;5.10;99.90
5280;DHT22;2663;53.588;10.010;2024-02-28T03:55:17;5.10;99.90
5280;DHT22;2663;53.588;10.010;2024-02-28T03:57:47;5.40;99.90
5280;DHT22;2663;53.588;10.010;2024-02-28T04:00:14;5.20;99.90
5280;DHT22;2663;53.588;10.010;2024-02-28T04:02:41;5.20;99.90
5280;DHT22;2663;53.588;10.010;2024-02-28T04:05:08;5.30;99.90
5280;DHT22;2663;53.588;10.010;2024-02-28T04:07:35;5.20;99.90
5280;DHT22;2663;53.588;10.010;2024-02-28T04:10:01;5.20;99.90
5280;DHT22;2663;53.588;10.010;2024-02-28T04:12:31;5.30;99.90
5280;DHT22;2663;53.588;10.010;2024-02-28T04:14:58;4.20;99.90
5280;DHT22;2663;53.588;10.010;2024-02-28T04:17:24;5.20;99.90
5280;DHT22;2663;53.588;10.010;2024-02-28T04:19:51;5.20;99.90
5280;DHT22;2663;53.588;10.010;2024-02-28T04:22:18;5.20;99.90
5280;DHT22;2663;53.588;10.010;2024-02-28T04:24:45;5.30;99.90
5280;DHT22;2663;53.588;10.010;2024-02-28T04:27:12;5.40;99.90
5280;DHT22;2663;53.588;10.010;2024-02-28T04:29:38;5.40;99.90
5280;DHT22;2663;53.588;10.010;2024-02-28T04:32:05;5.50;99.90
5280;DHT22;2663;53.588;10.010;2024-02-28T04:34:32;5.50;99.90
5280;DHT22;2663;53.588;10.010;2024-02-28T04:36:59;5.50;99.90
5280;DHT22;2663;53.588;10.010;2024-02-28T04:39:26;5.40;99.90
5280;DHT22;2663;53.588;10.010;2024-02-28T04:41:52;5.50;99.90
5280;DHT22;2663;53.588;10.010;2024-02-28T04:44:19;5.60;99.90
5280;DHT22;2663;53.588;10.010;2024-02-28T04:46:46;5.60;99.90
5280;DHT22;2663;53.588;10.010;2024-02-28T04:49:12;5.50;99.90
5280;DHT22;2663;53.588;10.010;2024-02-28T04:51:39;5.50;99.90
5280;DHT22;2663;53.588;10.010;2024-02-28T04:54:06;5.50;99.90
5280;DHT22;2663;53.588;10.010;2024-02-28T04:56:32;5.50;99.90
5280;DHT22;2663;53.588;10.010;2024-02-28T04:58:59;5.50;99.90
5280;DHT22;2663;53.588;10.010;2024-02-28T05:01:26;5.60;99.90
5280;DHT22;2663;53.588;10.010;2024-02-28T05:03:55;5.60;99.90
5280;DHT22;2663;53.588;10.010;2024-02-28T05:06:22;5.70;99.90
5280;DHT22;2663;53.588;10.010;2024-02-28T05:08:48;5.60;99.90
5280;DHT22;2663;53.588;10.010;2024-02-28T05:11:15;5.70;99.90
5280;DHT22;2663;53.588;10.010;2024-02-28T05:13:42;5.80;99.90
5280;DHT22;2663;53.588;10.010;2024-02-28T05:16:13;5.80;99.90
5280;DHT22;2663;53.588;10.010;2024-02-28T05:18:40;5.80;99.90
5280;DHT22;2663;53.588;10.010;2024-02-28T05:21:07;5.70;99.90
5280;DHT22;2663;53.588;10.010;2024-02-28T05:23:34;5.70;99.90
5280;DHT22;2663;53.588;10.010;2024-02-28T05:26:01;5.70;99.90
5280;DHT22;2663;53.588;10.010;2024-02-28T05:28:30;5.70;99.90
5280;DHT22;2663;53.588;10.010;2024-02-28T05:30:57;5.70;99.90
5280;DHT22;2663;53.588;10.010;2024-02-28T05:33:24;5.70;99.90
5280;DHT22;2663;53.588;10.010;2024-02-28T05:35:51;5.70;99.90
5280;DHT22;2663;53.588;10.010;2024-02-28T05:38:18;5.70;99.90
5280;DHT22;2663;53.588;10.010;2024-02-28T05:40:44;5.70;99.90
5280;DHT22;2663;53.588;10.010;2024-02-28T05:43:11;5.70;99.90
5280;DHT22;2663;53.588;10.010;2024-02-28T05:45:38;7.70;99.90
5280;DHT22;2663;53.588;10.010;2024-02-28T05:48:05;5.70;99.90
5280;DHT22;2663;53.588;10.010;2024-02-28T05:50:32;5.60;99.90
5280;DHT22;2663;53.588;10.010;2024-02-28T05:52:59;5.70;99.90
5280;DHT22;2663;53.588;10.010;2024-02-28T05:55:26;5.70;99.90
5280;DHT22;2663;53.588;10.010;2024-02-28T05:57:53;5.70;99.90
5280;DHT22;2663;53.588;10.010;2024-02-28T06:00:19;5.70;99.90
5280;DHT22;2663;53.588;10.010;2024-02-28T06:02:46;5.70;99.90
5280;DHT22;2663;53.588;10.010;2024-02-28T06:05:13;5.60;99.90
5280;DHT22;2663;53.588;10.010;2024-02-28T06:07:40;5.60;99.90
5280;DHT22;2663;53.588;10.010;2024-02-28T06:10:07;5.60;99.90
5280;DHT22;2663;53.588;10.010;2024-02-28T06:12:34;5.70;99.90
5280;DHT22;2663;53.588;10.010;2024-02-28T06:15:01;5.70;99.90
5280;DHT22;2663;53.588;10.010;2024-02-28T06:17:28;5.60;99.90
5280;DHT22;2663;53.588;10.010;2024-02-28T06:19:55;5.60;99.90
5280;DHT22;2663;53.588;10.010;2024-02-28T06:22:22;5.70;99.90
5280;DHT22;2663;53.588;10.010;2024-02-28T06:24:49;5.70;99.90
5280;DHT22;2663;53.588;10.010;2024-02-28T06:27:16;5.80;99.90
5280;DHT22;2663;53.588;10.010;2024-02-28T06:29:42;5.90;99.90
5280;DHT22;2663;53.588;10.010;2024-02-28T06:32:09;5.90;99.90
5280;DHT22;2663;53.588;10.010;2024-02-28T06:34:36;5.90;99.90
5280;DHT22;2663;53.588;10.010;2024-02-28T06:37:03;5.90;99.90
5280;DHT22;2663;53.588;10.010;2024-02-28T06:39:30;6.00;99.90
5280;DHT22;2663;53.588;10.010;2024-02-28T06:41:57;5.90;99.90
5280;DHT22;2663;53.588;10.010;2024-02-28T06:44:23;6.00;99.90
5280;DHT22;2663;53.588;10.010;2024-02-28T06:46:50;6.00;99.90
5280;DHT22;2663;53.588;10.010;2024-02-28T06:49:17;5.80;99.90
5280;DHT22;2663;53.588;10.010;2024-02-28T06:51:44;5.80;99.90
5280;DHT22;2663;53.588;10.010;2024-02-28T06:54:11;5.90;99.90
5280;DHT22;2663;53.588;10.010;2024-02-28T06:56:38;5.80;99.90
5280;DHT22;2663;53.588;10.010;2024-02-28T06:59:05;6.20;99.90
5280;DHT22;2663;53.588;10.010;2024-02-28T07:01:33;6.80;99.90
5280;DHT22;2663;53.588;10.010;2024-02-28T07:04:00;7.50;99.90
5280;DHT22;2663;53.588;10.010;2024-02-28T07:06:27;8.20;99.90
5280;DHT22;2663;53.588;10.010;2024-02-28T07:08:54;8.60;99.90
5280;DHT22;2663;53.588;10.010;2024-02-28T07:11:21;8.10;99.90
5280;DHT22;2663;53.588;10.010;2024-02-28T07:13:48;7.60;99.90
5280;DHT22;2663;53.588;10.010;2024-02-28T07:16:15;7.20;99.90
5280;DHT22;2663;53.588;10.010;2024-02-28T07:18:42;7.00;99.90
5280;DHT22;2663;53.588;10.010;2024-02-28T07:21:08;6.80;99.90
5280;DHT22;2663;53.588;10.010;2024-02-28T07:23:39;6.70;99.90
5280;DHT22;2663;53.588;10.010;2024-02-28T07:26:06;6.60;99.90
5280;DHT22;2663;53.588;10.010;2024-02-28T07:28:45;6.50;99.90
5280;DHT22;2663;53.588;10.010;2024-02-28T07:31:16;6.70;99.90
5280;DHT22;2663;53.588;10.010;2024-02-28T07:33:43;6.50;99.90
5280;DHT22;2663;53.588;10.010;2024-02-28T07:36:10;6.50;99.90
5280;DHT22;2663;53.588;10.010;2024-02-28T07:38:37;6.50;99.90
5280;DHT22;2663;53.588;10.010;2024-02-28T07:41:04;6.30;99.90
5280;DHT22;2663;53.588;10.010;2024-02-28T07:43:31;6.30;99.90
5280;DHT22;2663;53.588;10.010;2024-02-28T07:46:07;6.20;99.90
5280;DHT22;2663;53.588;10.010;2024-02-28T07:48:35;5.80;99.90
5280;DHT22;2663;53.588;10.010;2024-02-28T07:51:04;6.30;99.90
5280;DHT22;2663;53.588;10.010;2024-02-28T07:53:31;6.30;99.90
5280;DHT22;2663;53.588;10.010;2024-02-28T07:55:58;6.40;99.90
5280;DHT22;2663;53.588;10.010;2024-02-28T07:58:25;6.30;99.90
5280;DHT22;2663;53.588;10.010;2024-02-28T08:00:51;6.30;99.90
5280;DHT22;2663;53.588;10.010;2024-02-28T08:03:21;6.30;99.90
5280;DHT22;2663;53.588;10.010;2024-02-28T08:05:48;6.30;99.90
5280;DHT22;2663;53.588;10.010;2024-02-28T08:08:15;6.20;99.90
5280;DHT22;2663;53.588;10.010;2024-02-28T08:10:41;6.20;99.90
5280;DHT22;2663;53.588;10.010;2024-02-28T08:13:08;6.10;99.90
5280;DHT22;2663;53.588;10.010;2024-02-28T08:15:35;6.10;99.90
5280;DHT22;2663;53.588;10.010;2024-02-28T08:18:02;6.10;99.90
5280;DHT22;2663;53.588;10.010;2024-02-28T08:20:29;6.10;99.90
5280;DHT22;2663;53.588;10.010;2024-02-28T08:22:56;6.20;99.90
5280;DHT22;2663;53.588;10.010;2024-02-28T08:25:24;6.40;99.90
5280;DHT22;2663;53.588;10.010;2024-02-28T08:27:51;6.40;99.90
5280;DHT22;2663;53.588;10.010;2024-02-28T08:30:18;6.50;99.90
5280;DHT22;2663;53.588;10.010;2024-02-28T08:32:45;6.50;99.90
5280;DHT22;2663;53.588;10.010;2024-02-28T08:35:11;6.60;99.90
5280;DHT22;2663;53.588;10.010;2024-02-28T08:37:39;6.70;99.90
5280;DHT22;2663;53.588;10.010;2024-02-28T08:40:07;6.80;99.90
5280;DHT22;2663;53.588;10.010;2024-02-28T08:42:34;6.90;99.90
5280;DHT22;2663;53.588;10.010;2024-02-28T08:45:00;6.80;99.90
5280;DHT22;2663;53.588;10.010;2024-02-28T08:47:27;6.70;99.90
5280;DHT22;2663;53.588;10.010;2024-02-28T08:49:54;6.60;99.90
5280;DHT22;2663;53.588;10.010;2024-02-28T08:52:21;6.20;99.90
5280;DHT22;2663;53.588;10.010;2024-02-28T08:54:48;6.00;99.90
5280;DHT22;2663;53.588;10.010;2024-02-28T08:57:15;6.10;99.90
5280;DHT22;2663;53.588;10.010;2024-02-28T08:59:42;6.00;99.90
5280;DHT22;2663;53.588;10.010;2024-02-28T09:02:09;6.10;99.90
5280;DHT22;2663;53.588;10.010;2024-02-28T09:04:37;6.20;99.90
5280;DHT22;2663;53.588;10.010;2024-02-28T09:07:04;6.30;99.90
5280;DHT22;2663;53.588;10.010;2024-02-28T09:09:31;6.20;99.90
5280;DHT22;2663;53.588;10.010;2024-02-28T09:12:00;6.40;99.90
5280;DHT22;2663;53.588;10.010;2024-02-28T09:14:30;7.90;99.90
5280;DHT22;2663;53.588;10.010;2024-02-28T09:16:56;7.10;99.90
5280;DHT22;2663;53.588;10.010;2024-02-28T09:19:33;6.80;99.90
5280;DHT22;2663;53.588;10.010;2024-02-28T09:22:00;6.60;99.90
5280;DHT22;2663;53.588;10.010;2024-02-28T09:24:27;6.60;99.90
5280;DHT22;2663;53.588;10.010;2024-02-28T09:26:54;6.60;99.90
5280;DHT22;2663;53.588;10.010;2024-02-28T09:29:20;6.80;99.90
5280;DHT22;2663;53.588;10.010;2024-02-28T09:31:47;7.10;99.90
5280;DHT22;2663;53.588;10.010;2024-02-28T09:34:14;8.40;99.90
5280;DHT22;2663;53.588;10.010;2024-02-28T09:36:43;7.30;99.90
5280;DHT22;2663;53.588;10.010;2024-02-28T09:39:16;7.20;99.90
5280;DHT22;2663;53.588;10.010;2024-02-28T09:41:44;7.20;99.90
5280;DHT22;2663;53.588;10.010;2024-02-28T09:44:14;7.30;99.90
5280;DHT22;2663;53.588;10.010;2024-02-28T09:46:43;8.20;99.90
5280;DHT22;2663;53.588;10.010;2024-02-28T09:49:10;8.60;99.90
5280;DHT22;2663;53.588;10.010;2024-02-28T09:51:37;8.20;99.90
5280;DHT22;2663;53.588;10.010;2024-02-28T09:54:04;8.20;99.90
5280;DHT22;2663;53.588;10.010;2024-02-28T09:56:32;7.90;99.90
5280;DHT22;2663;53.588;10.010;2024-02-28T09:59:00;7.50;99.90
5280;DHT22;2663;53.588;10.010;2024-02-28T10:01:29;7.30;99.90
5280;DHT22;2663;53.588;10.010;2024-02-28T10:03:59;7.20;99.90
5280;DHT22;2663;53.588;10.010;2024-02-28T10:06:27;7.30;99.90
5280;DHT22;2663;53.588;10.010;2024-02-28T10:08:54;7.50;99.90
5280;DHT22;2663;53.588;10.010;2024-02-28T10:11:21;7.50;99.90
5280;DHT22;2663;53.588;10.010;2024-02-28T10:13:49;7.40;99.90
5280;DHT22;2663;53.588;10.010;2024-02-28T10:16:16;7.50;99.90
5280;DHT22;2663;53.588;10.010;2024-02-28T10:18:43;7.70;99.90
5280;DHT22;2663;53.588;10.010;2024-02-28T10:21:13;7.70;99.90
5280;DHT22;2663;53.588;10.010;2024-02-28T10:23:42;7.80;99.90
5280;DHT22;2663;53.588;10.010;2024-02-28T10:26:12;7.70;99.90
5280;DHT22;2663;53.588;10.010;2024-02-28T10:28:40;7.60;99.90
5280;DHT22;2663;53.588;10.010;2024-02-28T10:31:07;7.80;99.90
5280;DHT22;2663;53.588;10.010;2024-02-28T10:33:34;7.80;99.90
5280;DHT22;2663;53.588;10.010;2024-02-28T10:36:04;7.70;99.90
5280;DHT22;2663;53.588;10.010;2024-02-28T10:38:32;7.80;99.90
5280;DHT22;2663;53.588;10.010;2024-02-28T10:41:05;7.70;99.90
5280;DHT22;2663;53.588;10.010;2024-02-28T10:43:38;7.70;99.90
5280;DHT22;2663;53.588;10.010;2024-02-28T10:46:07;7.80;99.90
5280;DHT22;2663;53.588;10.010;2024-02-28T10:48:55;8.10;99.90
5280;DHT22;2663;53.588;10.010;2024-02-28T10:51:24;8.50;99.90
5280;DHT22;2663;53.588;10.010;2024-02-28T10:54:07;8.50;99.90
5280;DHT22;2663;53.588;10.010;2024-02-28T10:56:42;8.60;99.90
5280;DHT22;2663;53.588;10.010;2024-02-28T10:59:11;8.70;99.90
5280;DHT22;2663;53.588;10.010;2024-02-28T11:01:41;8.60;99.90
5280;DHT22;2663;53.588;10.010;2024-02-28T11:04:12;8.40;99.90
5280;DHT22;2663;53.588;10.010;2024-02-28T11:06:50;8.40;99.90
5280;DHT22;2663;53.588;10.010;2024-02-28T11:09:23;8.30;99.90
5280;DHT22;2663;53.588;10.010;2024-02-28T11:11:50;8.30;99.90
5280;DHT22;2663;53.588;10.010;2024-02-28T11:14:18;8.30;99.90
5280;DHT22;2663;53.588;10.010;2024-02-28T11:17:01;8.60;99.90
5280;DHT22;2663;53.588;10.010;2024-02-28T11:19:33;8.80;99.90
5280;DHT22;2663;53.588;10.010;2024-02-28T11:22:02;8.60;99.90
5280;DHT22;2663;53.588;10.010;2024-02-28T11:24:32;8.50;99.90
5280;DHT22;2663;53.588;10.010;2024-02-28T11:26:59;8.70;99.90
5280;DHT22;2663;53.588;10.010;2024-02-28T11:29:27;8.80;99.90
5280;DHT22;2663;53.588;10.010;2024-02-28T11:31:55;8.70;99.90
5280;DHT22;2663;53.588;10.010;2024-02-28T11:34:22;8.70;99.90
5280;DHT22;2663;53.588;10.010;2024-02-28T11:36:49;8.60;99.90
5280;DHT22;2663;53.588;10.010;2024-02-28T11:39:17;8.70;99.90
5280;DHT22;2663;53.588;10.010;2024-02-28T11:41:44;8.90;99.90
5280;DHT22;2663;53.588;10.010;2024-02-28T11:44:16;8.90;99.90
5280;DHT22;2663;53.588;10.010;2024-02-28T11:46:44;8.80;99.90
5280;DHT22;2663;53.588;10.010;2024-02-28T11:49:12;8.90;99.90
5280;DHT22;2663;53.588;10.010;2024-02-28T11:51:45;8.90;99.90
5280;DHT22;2663;53.588;10.010;2024-02-28T11:54:12;8.80;99.90
5280;DHT22;2663;53.588;10.010;2024-02-28T11:56:39;8.60;99.90
5280;DHT22;2663;53.588;10.010;2024-02-28T11:59:07;8.60;99.90
5280;DHT22;2663;53.588;10.010;2024-02-28T12:01:36;8.50;99.90
5280;DHT22;2663;53.588;10.010;2024-02-28T12:04:04;8.40;99.90
5280;DHT22;2663;53.588;10.010;2024-02-28T12:06:35;8.30;99.90
5280;DHT22;2663;53.588;10.010;2024-02-28T12:09:09;8.30;99.90
5280;DHT22;2663;53.588;10.010;2024-02-28T12:11:44;8.40;99.90
5280;DHT22;2663;53.588;10.010;2024-02-28T12:14:12;8.20;99.90
5280;DHT22;2663;53.588;10.010;2024-02-28T12:16:39;8.20;99.90
5280;DHT22;2663;53.588;10.010;2024-02-28T12:19:10;8.30;99.90
5280;DHT22;2663;53.588;10.010;2024-02-28T12:21:38;8.40;99.90
5280;DHT22;2663;53.588;10.010;2024-02-28T12:24:09;8.50;99.90
5280;DHT22;2663;53.588;10.010;2024-02-28T12:26:38;8.40;99.90
5280;DHT22;2663;53.588;10.010;2024-02-28T12:29:05;8.50;99.90
5280;DHT22;2663;53.588;10.010;2024-02-28T12:31:31;8.40;99.90
5280;DHT22;2663;53.588;10.010;2024-02-28T12:33:58;8.40;99.90
5280;DHT22;2663;53.588;10.010;2024-02-28T12:36:25;8.40;99.90
5280;DHT22;2663;53.588;10.010;2024-02-28T12:38:53;8.20;99.90
5280;DHT22;2663;53.588;10.010;2024-02-28T12:41:20;7.90;99.90
5280;DHT22;2663;53.588;10.010;2024-02-28T12:43:47;8.90;99.90
5280;DHT22;2663;53.588;10.010;2024-02-28T12:46:14;8.10;99.90
5280;DHT22;2663;53.588;10.010;2024-02-28T12:48:41;8.20;99.90
5280;DHT22;2663;53.588;10.010;2024-02-28T12:51:20;8.30;99.90
5280;DHT22;2663;53.588;10.010;2024-02-28T12:53:47;8.30;99.90
5280;DHT22;2663;53.588;10.010;2024-02-28T12:56:18;8.30;99.90
5280;DHT22;2663;53.588;10.010;2024-02-28T12:58:44;8.40;99.90
5280;DHT22;2663;53.588;10.010;2024-02-28T13:01:11;8.30;99.90
5280;DHT22;2663;53.588;10.010;2024-02-28T13:03:38;8.20;99.90
5280;DHT22;2663;53.588;10.010;2024-02-28T13:06:05;8.10;99.90
5280;DHT22;2663;53.588;10.010;2024-02-28T13:08:31;8.30;99.90
5280;DHT22;2663;53.588;10.010;2024-02-28T13:10:58;8.30;99.90
5280;DHT22;2663;53.588;10.010;2024-02-28T13:13:25;8.40;99.90
5280;DHT22;2663;53.588;10.010;2024-02-28T13:15:52;8.90;99.90
5280;DHT22;2663;53.588;10.010;2024-02-28T13:18:18;8.20;99.90
5280;DHT22;2663;53.588;10.010;2024-02-28T13:20:45;8.10;99.90
5280;DHT22;2663;53.588;10.010;2024-02-28T13:23:12;8.30;99.90
5280;DHT22;2663;53.588;10.010;2024-02-28T13:25:39;8.30;99.90
5280;DHT22;2663;53.588;10.010;2024-02-28T13:28:06;8.40;99.90
5280;DHT22;2663;53.588;10.010;2024-02-28T13:30:32;8.50;99.90
5280;DHT22;2663;53.588;10.010;2024-02-28T13:33:03;8.70;99.90
5280;DHT22;2663;53.588;10.010;2024-02-28T13:35:30;8.60;99.90
5280;DHT22;2663;53.588;10.010;2024-02-28T13:37:57;7.60;99.90
5280;DHT22;2663;53.588;10.010;2024-02-28T13:40:27;8.60;99.90
5280;DHT22;2663;53.588;10.010;2024-02-28T13:42:54;8.60;99.90
5280;DHT22;2663;53.588;10.010;2024-02-28T13:45:20;8.40;99.90
5280;DHT22;2663;53.588;10.010;2024-02-28T13:47:47;8.40;99.90
5280;DHT22;2663;53.588;10.010;2024-02-28T13:50:14;8.40;99.90
5280;DHT22;2663;53.588;10.010;2024-02-28T13:52:40;8.40;99.90
5280;DHT22;2663;53.588;10.010;2024-02-28T13:55:07;8.50;99.90
5280;DHT22;2663;53.588;10.010;2024-02-28T13:57:36;8.50;99.90
5280;DHT22;2663;53.588;10.010;2024-02-28T14:00:03;8.50;99.90
5280;DHT22;2663;53.588;10.010;2024-02-28T14:02:33;8.50;99.90
5280;DHT22;2663;53.588;10.010;2024-02-28T14:05:00;8.50;99.90
5280;DHT22;2663;53.588;10.010;2024-02-28T14:07:27;8.50;99.90
5280;DHT22;2663;53.588;10.010;2024-02-28T14:09:53;8.50;99.90
5280;DHT22;2663;53.588;10.010;2024-02-28T14:12:20;8.50;99.90
5280;DHT22;2663;53.588;10.010;2024-02-28T14:14:47;8.50;99.90
5280;DHT22;2663;53.588;10.010;2024-02-28T14:17:14;8.40;99.90
5280;DHT22;2663;53.588;10.010;2024-02-28T14:19:41;8.40;99.90
5280;DHT22;2663;53.588;10.010;2024-02-28T14:22:08;8.40;99.90
5280;DHT22;2663;53.588;10.010;2024-02-28T14:24:36;8.50;99.90
5280;DHT22;2663;53.588;10.010;2024-02-28T14:27:05;8.60;99.90
5280;DHT22;2663;53.588;10.010;2024-02-28T14:29:33;8.60;99.90
5280;DHT22;2663;53.588;10.010;2024-02-28T14:31:59;8.60;99.90
5280;DHT22;2663;53.588;10.010;2024-02-28T14:34:27;8.70;99.90
5280;DHT22;2663;53.588;10.010;2024-02-28T14:36:57;8.70;99.90
5280;DHT22;2663;53.588;10.010;2024-02-28T14:39:24;8.60;99.90
5280;DHT22;2663;53.588;10.010;2024-02-28T14:41:51;8.50;99.90
5280;DHT22;2663;53.588;10.010;2024-02-28T14:44:18;8.40;99.90
5280;DHT22;2663;53.588;10.010;2024-02-28T14:46:44;8.40;99.90
5280;DHT22;2663;53.588;10.010;2024-02-28T14:49:11;8.40;99.90
5280;DHT22;2663;53.588;10.010;2024-02-28T14:51:38;8.30;99.90
5280;DHT22;2663;53.588;10.010;2024-02-28T14:54:06;8.40;99.90
5280;DHT22;2663;53.588;10.010;2024-02-28T14:56:33;8.30;99.90
5280;DHT22;2663;53.588;10.010;2024-02-28T14:58:59;8.40;99.90
5280;DHT22;2663;53.588;10.010;2024-02-28T15:01:26;8.30;99.90
5280;DHT22;2663;53.588;10.010;2024-02-28T15:03:53;8.30;99.90
5280;DHT22;2663;53.588;10.010;2024-02-28T15:06:20;8.30;99.90
5280;DHT22;2663;53.588;10.010;2024-02-28T15:08:47;8.30;99.90
5280;DHT22;2663;53.588;10.010;2024-02-28T15:11:15;8.40;99.90
5280;DHT22;2663;53.588;10.010;2024-02-28T15:13:42;8.40;99.90
5280;DHT22;2663;53.588;10.010;2024-02-28T15:16:09;8.40;99.90
5280;DHT22;2663;53.588;10.010;2024-02-28T15:18:37;8.40;99.90
5280;DHT22;2663;53.588;10.010;2024-02-28T15:21:04;8.50;99.90
5280;DHT22;2663;53.588;10.010;2024-02-28T15:23:31;8.70;99.90
5280;DHT22;2663;53.588;10.010;2024-02-28T15:25:58;8.80;99.90
5280;DHT22;2663;53.588;10.010;2024-02-28T15:28:25;8.90;99.90
5280;DHT22;2663;53.588;10.010;2024-02-28T15:30:53;9.00;99.90
5280;DHT22;2663;53.588;10.010;2024-02-28T15:33:21;9.10;99.90
5280;DHT22;2663;53.588;10.010;2024-02-28T15:35:48;9.00;99.90
5280;DHT22;2663;53.588;10.010;2024-02-28T15:38:15;9.10;99.90
5280;DHT22;2663;53.588;10.010;2024-02-28T15:40:42;9.30;99.90
5280;DHT22;2663;53.588;10.010;2024-02-28T15:43:09;9.20;99.90
5280;DHT22;2663;53.588;10.010;2024-02-28T15:45:36;8.90;99.90
5280;DHT22;2663;53.588;10.010;2024-02-28T15:48:05;8.80;99.90
5280;DHT22;2663;53.588;10.010;2024-02-28T15:50:31;8.70;99.90
5280;DHT22;2663;53.588;10.010;2024-02-28T15:52:58;8.60;99.90
5280;DHT22;2663;53.588;10.010;2024-02-28T15:55:25;8.60;99.90
5280;DHT22;2663;53.588;10.010;2024-02-28T15:57:51;8.60;99.90
5280;DHT22;2663;53.588;10.010;2024-02-28T16:00:21;8.60;99.90
5280;DHT22;2663;53.588;10.010;2024-02-28T16:02:48;8.70;99.90
5280;DHT22;2663;53.588;10.010;2024-02-28T16:05:15;8.70;99.90